Arena, Wisconsin
Current Conditions -  °F | °C
As of 10:56 PM on Tuesday 25 Nov 2014 (Local Time) from KLNR Reporting Station
Clear Clear  
Wind Chill: -18°   Ceiling: Unl
Heat Index: -13°   Visibility: 7mi
Dew Point: -17°   Wind: 6mph
Humidity: 73%   Direction: 90°E
Pressure: 30.15"   Gusts: NA
Location:  43.17°N, 89.91°W
Report Text: KLNR 260456Z AUTO 09005KT 7SM CLR M13/M17 A3015 RMK AO2 SLP219 I1000 T11281167
Loading
Personal Weather Stations






























Interactive Weather Map New forecast layout! Learn more

10-Day Weather Forecast

Advertisements
Track Severe Weather on mobile